Strona główna
METAR-TAF:

METAR-TAF

Lotnisko :

Recife, Pernambuco, Brazylia

Port lotniczy Recife

Szerokość geograficzna: 08-08S, Długość geograficzna: 034-55W, wysokość: 19 m

Aktualna obserwacja pogody

Raport powstał 55 minut temu, godzina 07:00 UTC
Wiatr 10 kt od wschodnio-południowy wschód
Temperatura 26°C
Wilgotność 74%
Ciśnienie 1012 hPa
Widzialność 10 km lub więcej
Rozproszone chmury na wysokości 2300 ft

METAR: SBRF 160700Z 12010KT 9999 SCT023 26/21 Q1012

czas: 04:55 (07:55 UTC)

Prognoza

Raport powstał 4 godziny i 55 minut temu, godzina 03:00 UTC
Prognoza ważna od 16 godzina 06 UTC do 17 godzina 06 UTC
Wiatr 10 kt od wschodnio-południowy wschód
Widzialność 10 km lub więcej
Rozproszone chmury na wysokości 2000 ft
Stopniowe zmiany
od 16 godzina 09 UTC do 16 godzina 10 UTC
Wiatr 12 kt od południowy wschód

TAF: SBRF 160300Z 1606/1706 12010KT 9999 SCT020 TN27/1607Z TX30/1614Z BECMG 1609/1610 14012KT RMK PEU

Obserwacja i prognoza pogody dla ponad 4000 lotnisk (raport METAR i TAF).

Dostępne stacje oznaczono żółtymi i czerwonymi punktami na mapie.

Najedź kursorem aby zobaczyć nazwę stacji.

Kliknij aby zobaczyć obserwacje i prognozy pogody.

Aby zmienić mapę: kliknij na zielony przycisk z czarnym krzyżykiem, aby powiększyć; na zielony przycisk z myślnikiem, aby pomniejszyć; na zielone strzałki, aby przejść do map sąsiednich.


METAR-TAF: